首页
METAR-TAF:

METAR-TAF

机场 :

约翰·卡尔·芒罗哈密尔顿国际机场

哈密尔顿, 安大略省, 加拿大

纬度: 43-10N, 经度: 079-56W, 海拔: 237米

当前天气观测

该预报发布于21分钟前的19:11 UTC
风速14节,风向西,有时为19节阵风
温度 -3°C
湿度 58%
气压 1029 hPa
能見度: 24.1公里
阴天层高于3200英尺
小雪

METAR: CYHM 191911Z 27014G19KT 15SM -SN OVC032 M03/M10 A3038 RMK SC8 SLP301

时间: 14:32 (19:32 UTC)

预报

该预报发布于1小时和54分钟前的17:38 UTC
预报有效从19日的 18点(UTC)到 20日的 18点(UTC)
风速10节,风向西北,有时为20节阵风
能見度: 10公里
多云层高于4000英尺
短暂存在
从 19日的 18点(UTC)到 19日的 20点(UTC)
能見度: 10公里
小阵雪
成为
从 20日的 00点(UTC)到 20日的 02点(UTC)
风速8节,风向西
从 20日的 1700点(UTC)
风速12节,风向西转西北,有时为22节阵风
能見度: 10公里
多云层高于5000英尺
短暂存在
从 20日的 17点(UTC)到 20日的 18点(UTC)
能見度: 10公里
小阵雪

TAF: CYHM 191738Z 1918/2018 31010G20KT P6SM BKN040 TEMPO 1918/1920 P6SM -SHSN BECMG 2000/2002 27008KT FM201700 29012G22KT P6SM BKN050 TEMPO 2017/2018 P6SM -SHSN RMK NXT FCST BY 200000Z

超过4000个机场的气象观测和天气预报(METAR&TAF报告)。

可查询的气象台以黄色和红色小点在地图上表示。

将鼠标移到小点上方,可查看气象台名称。

然后点击查看天气观测和预报。

如需切换地图:点击带黑十字的绿色按钮放大地图;点击带横线的绿色按钮缩小地图;或者点击绿色箭头查看邻近地区的地图。


METAR-TAF: